Time;durP1;ratioP1;P1;durP2;ratioP2;P2;SDS_P1;SDS_P2;PMS_P1;PMS_P2;Temp;Humidity;BMP_temperature;BMP_pressure;BME280_temperature;BME280_humidity;BME280_pressure;Samples;Min_cycle;Max_cycle;Signal;HPM_P1;HPM_P2
2022/12/26 00:06:34;;;;;;;1.08;0.98;;;;;;;20.41;24.69;101637.69;20835313;28;20042;-60
2022/12/26 00:16:36;;;;;;;0.98;0.88;;;;;;;20.46;24.87;101641.34;20834802;28;20029;-61
2022/12/26 00:26:40;;;;;;;0.95;0.90;;;;;;;20.47;24.54;101645.84;20833505;28;20076;-60
2022/12/26 00:36:42;;;;;;;0.95;0.85;;;;;;;20.53;24.73;101677.34;20832821;28;20380;-60
2022/12/26 00:46:43;;;;;;;1.00;0.88;;;;;;;20.51;24.78;101702.63;20832160;28;20369;-61
2022/12/26 00:56:47;;;;;;;1.40;1.00;;;;;;;20.52;24.66;101695.94;20831473;28;20037;-61
2022/12/26 01:06:49;;;;;;;1.30;1.20;;;;;;;20.54;24.89;101704.06;20829999;28;20056;-60
2022/12/26 01:16:50;;;;;;;1.30;1.10;;;;;;;20.52;24.93;101720.97;20830273;28;20041;-60
2022/12/26 01:26:51;;;;;;;1.10;0.90;;;;;;;20.51;25.01;101727.63;20828664;28;20087;-61
2022/12/26 01:36:53;;;;;;;1.10;1.00;;;;;;;20.47;24.72;101731.16;20828554;28;20037;-62
2022/12/26 01:46:54;;;;;;;1.23;0.95;;;;;;;20.48;25.11;101744.00;20827310;28;20038;-61
2022/12/26 01:56:57;;;;;;;1.20;0.90;;;;;;;20.31;24.64;101736.53;20825529;28;20084;-61
2022/12/26 02:07:05;;;;;;;1.70;1.27;;;;;;;20.43;25.15;101788.38;20825985;28;20057;-60
2022/12/26 02:17:07;;;;;;;1.60;1.35;;;;;;;20.40;24.72;101797.25;20829863;28;20041;-60
2022/12/26 02:27:29;;;;;;;1.85;1.30;;;;;;;20.35;24.71;101816.63;20842941;28;20049;-60
2022/12/26 02:37:45;;;;;;;1.20;1.10;;;;;;;20.27;24.77;101824.31;20841193;28;20103;-60
2022/12/26 02:48:15;;;;;;;1.45;1.35;;;;;;;20.21;25.09;101838.41;20841783;28;20041;-60
2022/12/26 03:19:36;;;;;;;1.42;1.13;;;;;;;20.09;24.86;101852.38;20840991;28;20392;-60
2022/12/26 04:53:29;;;;;;;1.73;1.25;;;;;;;20.46;24.45;101975.00;20833736;28;20029;-60
2022/12/26 05:13:57;;;;;;;1.92;1.30;;;;;;;20.47;24.57;101975.81;20831611;28;20404;-60
2022/12/26 05:34:20;;;;;;;1.75;1.10;;;;;;;20.42;24.56;101968.25;20829839;28;20037;-60
2022/12/26 05:44:21;;;;;;;1.20;1.10;;;;;;;20.40;24.58;101980.72;20827796;28;20103;-61
2022/12/26 05:54:22;;;;;;;1.10;1.00;;;;;;;20.36;24.38;101985.09;20828304;28;20029;-60
2022/12/26 06:04:25;;;;;;;1.25;1.10;;;;;;;20.34;24.65;101999.22;20828139;28;20038;-59
2022/12/26 06:14:27;;;;;;;1.17;1.08;;;;;;;20.33;24.79;102007.84;20826626;28;20424;-60
2022/12/26 06:24:28;;;;;;;1.52;1.10;;;;;;;20.30;24.71;102004.47;20825617;28;20550;-60
2022/12/26 06:34:30;;;;;;;1.17;0.88;;;;;;;20.27;24.29;102026.38;20825988;28;20103;-60
2022/12/26 06:44:31;;;;;;;1.55;1.20;;;;;;;20.15;24.21;102018.09;20824906;28;20042;-60
2022/12/26 06:54:33;;;;;;;1.13;1.02;;;;;;;20.17;24.63;102035.38;20826021;28;20029;-60
2022/12/26 07:04:35;;;;;;;1.27;0.90;;;;;;;20.16;24.68;102061.47;20830173;28;20033;-60
2022/12/26 07:14:36;;;;;;;1.10;1.00;;;;;;;20.14;24.66;102060.88;20839383;28;20050;-60
2022/12/26 07:24:37;;;;;;;2.03;1.10;;;;;;;20.19;24.79;102060.97;20839302;28;20046;-60
2022/12/26 07:34:40;;;;;;;1.08;0.98;;;;;;;20.21;24.40;102060.72;20838471;28;20373;-60
2022/12/26 07:44:42;;;;;;;0.80;0.80;;;;;;;20.29;24.21;102091.72;20837063;28;20393;-60
2022/12/26 07:54:43;;;;;;;1.20;1.08;;;;;;;20.35;24.39;102111.31;20837060;28;20107;-60
2022/12/26 08:04:47;;;;;;;1.60;0.90;;;;;;;20.39;24.05;102101.34;20834809;28;20034;-60
2022/12/26 08:14:49;;;;;;;1.77;1.30;;;;;;;20.44;24.18;102104.25;20834342;28;20033;-60
2022/12/26 08:24:50;;;;;;;1.63;1.13;;;;;;;20.41;24.10;102115.84;20833942;28;20045;-60
2022/12/26 08:34:52;;;;;;;1.27;0.98;;;;;;;20.45;24.36;102122.59;20833584;28;20407;-60
2022/12/26 08:44:53;;;;;;;1.25;0.85;;;;;;;20.45;24.30;102130.94;20831932;28;20103;-60
2022/12/26 08:54:54;;;;;;;2.90;0.95;;;;;;;20.44;24.24;102145.94;20831918;28;20076;-60
2022/12/26 09:04:56;;;;;;;1.83;1.17;;;;;;;20.43;24.50;102138.69;20831346;28;20114;-60
2022/12/26 09:15:00;;;;;;;1.20;1.10;;;;;;;20.37;24.45;102159.16;20830156;28;20041;-59
2022/12/26 09:25:04;;;;;;;1.30;1.15;;;;;;;20.26;24.54;102133.94;20828977;28;20071;-60
2022/12/26 09:35:06;;;;;;;1.23;1.00;;;;;;;20.24;24.42;102138.88;20827841;28;20418;-60
2022/12/26 09:45:14;;;;;;;1.55;1.10;;;;;;;20.32;24.60;102148.75;20827381;28;20037;-60
2022/12/26 09:55:36;;;;;;;2.03;1.30;;;;;;;20.31;24.33;102178.50;20827321;28;20057;-59
2022/12/26 10:05:45;;;;;;;1.10;1.00;;;;;;;20.29;24.15;102182.59;20827861;28;20049;-60
2022/12/26 10:15:46;;;;;;;2.30;1.33;;;;;;;20.24;24.40;102200.03;20826845;28;20550;-60
2022/12/26 10:25:58;;;;;;;2.95;1.30;;;;;;;20.20;24.31;102209.94;20826824;28;20053;-60
2022/12/26 10:36:03;;;;;;;1.70;1.40;;;;;;;20.14;24.14;102224.00;20826354;28;20110;-60
2022/12/26 10:46:10;;;;;;;1.92;1.27;;;;;;;20.09;24.54;102246.94;20841778;28;20042;-60
2022/12/26 10:56:14;;;;;;;1.70;1.30;;;;;;;20.08;24.73;102278.63;20841319;28;20042;-59
2022/12/26 11:06:18;;;;;;;1.33;1.23;;;;;;;20.11;24.24;102272.56;20840263;28;20076;-60
2022/12/26 11:16:30;;;;;;;2.05;1.30;;;;;;;20.01;24.40;102277.88;20838214;28;20433;-60
2022/12/26 11:26:38;;;;;;;1.58;1.10;;;;;;;20.02;24.46;102290.69;20838599;28;20049;-60
2022/12/26 11:36:46;;;;;;;1.35;1.20;;;;;;;20.21;24.46;102300.59;20838150;28;20045;-60
2022/12/26 11:46:53;;;;;;;2.13;1.50;;;;;;;20.27;24.06;102341.31;20837057;28;20037;-60
2022/12/26 11:57:11;;;;;;;1.25;1.10;;;;;;;20.33;24.45;102335.88;20835888;28;20100;-59
2022/12/26 12:07:31;;;;;;;1.80;1.63;;;;;;;20.34;24.32;102376.47;20835086;28;20488;-60
2022/12/26 12:18:00;;;;;;;1.77;1.40;;;;;;;20.36;24.06;102377.09;20835043;28;20388;-60
2022/12/26 12:28:10;;;;;;;2.28;1.65;;;;;;;20.38;23.96;102409.09;20834396;28;20468;-60
2022/12/26 12:38:26;;;;;;;1.63;1.50;;;;;;;20.36;24.18;102396.56;20833438;28;20030;-60
2022/12/26 12:48:51;;;;;;;1.50;1.35;;;;;;;20.39;24.08;102407.16;20832293;28;20498;-59
2022/12/26 12:59:17;;;;;;;1.50;1.20;;;;;;;20.34;24.50;102415.38;20831195;28;20075;-60
2022/12/26 13:09:43;;;;;;;1.50;1.13;;;;;;;20.35;24.29;102422.66;20830803;28;20041;-60
2022/12/26 13:19:53;;;;;;;1.67;1.58;;;;;;;20.22;24.28;102394.00;20829440;28;20500;-60
2022/12/26 13:29:54;;;;;;;1.30;1.13;;;;;;;20.35;24.32;102439.34;20828790;28;20558;-60
2022/12/26 13:39:56;;;;;;;1.40;1.30;;;;;;;20.23;24.14;102428.19;20828369;28;20103;-60
2022/12/26 13:49:57;;;;;;;2.30;1.40;;;;;;;20.27;24.20;102444.16;20827953;28;20045;-60
2022/12/26 14:00:13;;;;;;;1.50;1.20;;;;;;;20.24;24.52;102491.88;20828135;28;20037;-60
2022/12/26 14:10:37;;;;;;;2.50;1.73;;;;;;;20.16;24.71;102495.03;20827664;28;20037;-60
2022/12/26 14:20:48;;;;;;;2.60;1.60;;;;;;;20.16;24.53;102483.91;20842392;28;20091;-60
2022/12/26 14:31:10;;;;;;;1.48;1.38;;;;;;;20.18;24.52;102503.97;20842964;28;20045;-60
2022/12/26 14:51:36;;;;;;;1.80;1.50;;;;;;;20.23;25.18;102509.66;20842437;28;20037;-60
2022/12/26 15:01:37;;;;;;;1.33;1.10;;;;;;;20.27;24.83;102510.88;20841255;28;20033;-60
2022/12/26 15:11:55;;;;;;;1.55;1.20;;;;;;;20.27;25.28;102522.00;20840268;28;20438;-60
2022/12/26 15:22:27;;;;;;;2.78;1.35;;;;;;;20.29;24.95;102518.97;20837511;28;20038;-60
2022/12/26 15:32:53;;;;;;;1.83;1.33;;;;;;;20.33;25.45;102524.91;20839318;28;20041;-60
2022/12/26 15:43:00;;;;;;;1.95;1.25;;;;;;;20.44;24.93;102521.31;20837562;28;20046;-60
2022/12/26 15:53:18;;;;;;;1.77;1.35;;;;;;;20.45;25.43;102525.78;20837242;28;20441;-60
2022/12/26 16:03:31;;;;;;;1.70;1.30;;;;;;;20.51;25.28;102535.97;20835728;28;20507;-60
2022/12/26 16:13:35;;;;;;;1.40;1.10;;;;;;;20.51;24.53;102530.41;20835812;28;20111;-61
2022/12/26 16:23:39;;;;;;;1.88;1.42;;;;;;;20.52;24.87;102495.94;20834364;28;20041;-61
2022/12/26 16:33:42;;;;;;;2.10;1.20;;;;;;;20.53;24.63;102458.72;20833465;28;20103;-60
2022/12/26 16:43:44;;;;;;;1.02;0.88;;;;;;;20.59;24.19;102445.78;20832363;28;20041;-61
2022/12/26 16:53:48;;;;;;;2.03;1.17;;;;;;;20.57;24.34;102432.09;20832636;28;20025;-62
2022/12/26 17:03:49;;;;;;;2.08;1.20;;;;;;;20.55;24.55;102412.03;20831516;28;20030;-61
2022/12/26 17:13:55;;;;;;;1.58;1.20;;;;;;;20.54;24.21;102410.34;20831077;28;20075;-60
2022/12/26 17:24:26;;;;;;;1.30;1.08;;;;;;;20.51;24.26;102383.03;20829702;28;20083;-60
2022/12/26 17:34:28;;;;;;;1.10;1.00;;;;;;;20.13;24.94;102287.06;20829117;28;20534;-60
2022/12/26 17:44:44;;;;;;;1.75;1.20;;;;;;;20.49;24.44;102336.00;20828917;28;20063;-60
2022/12/26 17:54:48;;;;;;;1.67;1.38;;;;;;;20.48;23.63;102350.13;20827895;28;20483;-60
2022/12/26 18:04:49;;;;;;;1.80;1.52;;;;;;;20.47;23.89;102352.06;20827865;28;20146;-60
2022/12/26 18:14:51;;;;;;;1.42;1.15;;;;;;;20.44;23.41;102351.69;20827584;28;20038;-60
2022/12/26 18:24:58;;;;;;;3.28;1.30;;;;;;;20.39;23.99;102351.56;20826687;28;20068;-61
2022/12/26 18:34:59;;;;;;;1.88;1.15;;;;;;;20.38;24.55;102361.84;20826487;28;20037;-61
2022/12/26 18:45:01;;;;;;;1.20;1.10;;;;;;;20.42;24.66;102367.75;20825898;28;20093;-61
2022/12/26 18:55:02;;;;;;;1.30;1.10;;;;;;;20.46;25.22;102332.81;20825611;28;20103;-60
2022/12/26 19:05:04;;;;;;;1.52;1.23;;;;;;;20.43;24.98;102297.16;20836961;28;20392;-60
2022/12/26 19:15:06;;;;;;;1.88;1.20;;;;;;;20.54;25.44;102310.25;20840647;28;20472;-60
2022/12/26 19:25:08;;;;;;;2.00;1.30;;;;;;;20.60;25.28;102289.78;20839165;28;20076;-60
2022/12/26 19:35:10;;;;;;;1.42;1.02;;;;;;;20.61;25.09;102290.63;20838481;28;20045;-60
2022/12/26 19:45:12;;;;;;;1.42;1.05;;;;;;;20.67;25.14;102304.41;20837666;28;20388;-61
2022/12/26 19:55:13;;;;;;;1.55;1.10;;;;;;;20.70;25.31;102298.31;20836863;28;20080;-63
2022/12/26 20:05:14;;;;;;;1.13;1.02;;;;;;;20.66;25.00;102313.81;20836219;28;20041;-59
2022/12/26 20:15:16;;;;;;;1.55;1.20;;;;;;;20.72;25.16;102298.94;20835358;28;20041;-60
2022/12/26 20:25:20;;;;;;;1.70;1.33;;;;;;;20.42;24.86;102245.44;20834912;28;20045;-60
2022/12/26 20:35:21;;;;;;;1.10;0.98;;;;;;;20.76;24.74;102269.53;20832591;28;20500;-60
2022/12/26 20:45:22;;;;;;;1.40;1.13;;;;;;;20.74;24.43;102271.72;20832278;28;20048;-60
2022/12/26 20:55:24;;;;;;;1.80;1.00;;;;;;;20.77;24.58;102298.19;20831504;28;20041;-59
2022/12/26 21:05:28;;;;;;;1.95;1.27;;;;;;;20.73;24.56;102303.41;20830691;28;20042;-60
2022/12/26 21:15:29;;;;;;;1.25;1.00;;;;;;;20.73;24.05;102306.19;20830217;28;20038;-60
2022/12/26 21:25:32;;;;;;;1.73;1.27;;;;;;;20.70;24.12;102315.00;20828755;28;20052;-60
2022/12/26 21:35:38;;;;;;;1.73;1.20;;;;;;;20.66;24.60;102333.28;20827429;28;20037;-60
2022/12/26 21:45:42;;;;;;;2.10;1.20;;;;;;;20.53;24.60;102337.22;20827710;28;20053;-59
2022/12/26 21:55:44;;;;;;;1.42;1.00;;;;;;;20.59;24.32;102332.59;20828174;28;20480;-60
2022/12/26 22:05:45;;;;;;;1.67;1.10;;;;;;;20.59;24.34;102315.91;20827436;28;20416;-60
2022/12/26 22:16:05;;;;;;;1.40;1.02;;;;;;;20.52;24.66;102334.66;20826427;28;20042;-60
2022/12/26 22:26:09;;;;;;;1.30;1.05;;;;;;;20.51;24.53;102356.06;20825626;28;20045;-61
2022/12/26 22:36:11;;;;;;;2.35;1.00;;;;;;;20.47;24.28;102392.91;20832680;28;20049;-60
2022/12/26 22:46:12;;;;;;;1.33;0.90;;;;;;;20.45;24.67;102407.06;20841385;28;20042;-60
2022/12/26 22:56:17;;;;;;;2.00;1.58;;;;;;;20.45;24.66;102428.47;20840721;28;20037;-59
2022/12/26 23:06:22;;;;;;;1.20;1.05;;;;;;;20.47;25.07;102401.25;20840620;28;20136;-59
2022/12/26 23:16:24;;;;;;;1.15;0.98;;;;;;;20.52;24.81;102409.75;20839373;28;20504;-59
2022/12/26 23:26:26;;;;;;;1.30;1.20;;;;;;;20.48;24.50;102395.50;20838802;28;20037;-59
2022/12/26 23:36:30;;;;;;;1.20;1.10;;;;;;;20.59;24.85;102382.66;20838140;28;20496;-59
2022/12/26 23:46:34;;;;;;;1.23;1.13;;;;;;;20.62;24.56;102348.81;20837644;28;20043;-59
2022/12/26 23:56:36;;;;;;;1.52;1.10;;;;;;;20.65;24.50;102351.06;20836660;28;20071;-59
